Silver Ray — D5DR6 — position and weather

sailwx.info

Track history (hours):
 
Tides and Currents Weather Stations Pressure Air Temp Water Temp Dewpoint Dewpoint Depression Visibility Wind Speed Wind Dir Waves Ship Positions

Silver Ray

Last reported at 2017-Oct-24 15:47 UTC. Time now 2017-Dec-11 02:21 UTC.
Position N 01°15' E 104°10'.
Warning: this ship's position is 47 days out of date.

Length 142 m; draft 6.2 m.

Type: Ship. MMSI: 636015953.

Date/timePositionNaut miles runAvg speedWind from/ knotsBaromVisibWave heightAir tempDewpointWater temp
2017-Oct-24 15:47N 01°15' E 104°10'413.9
2017-Oct-24 15:28N 01°15' E 104°06'713.9
2017-Oct-24 15:00N 01°14' E 103°59'713.9
2017-Oct-24 14:31N 01°12' E 103°53'714.2
2017-Oct-24 14:00N 01°08' E 103°47'714.4
2017-Oct-24 13:30N 01°03' E 103°41'612.2
2017-Oct-24 12:59N 01°05' E 103°35'4 9.1
2017-Oct-24 12:30N 01°09' E 103°33'510.5
2017-Oct-24 11:59N 01°12' E 103°38'2 3.8
2017-Oct-24 11:30N 01°14' E 103°38'0 0.6
2017-Oct-24 10:59N 01°14' E 103°38'0 0.1
2017-Oct-24 10:29N 01°14' E 103°38'0 0.1
2017-Oct-24 09:59N 01°14' E 103°38'0 0.0
2017-Oct-24 09:23N 01°14' E 103°38'0 0.0
2017-Oct-24 08:53N 01°14' E 103°38'0 0.0
2017-Oct-24 08:23N 01°14' E 103°38'0 0.0
2017-Oct-24 07:59N 01°14' E 103°38'0 0.0
2017-Oct-24 07:29N 01°14' E 103°38'0 0.0
2017-Oct-24 06:41N 01°14' E 103°38'0 0.0
2017-Oct-24 06:29N 01°14' E 103°38'0 0.0
2017-Oct-24 05:59N 01°14' E 103°38'0 0.0
2017-Oct-24 05:29N 01°14' E 103°38'0 0.0
2017-Oct-24 04:59N 01°14' E 103°38'0 0.1
2017-Oct-24 04:20N 01°14' E 103°38'0 0.2
2017-Oct-24 03:53N 01°14' E 103°38'0 0.1
2017-Oct-24 03:29N 01°14' E 103°38'0 0.0
2017-Oct-24 02:59N 01°14' E 103°38'0 0.2
2017-Oct-24 02:29N 01°14' E 103°38'0 0.7
2017-Oct-24 01:59N 01°13' E 103°38'2 4.5
2017-Oct-24 01:30N 01°12' E 103°40'610.8
2017-Oct-24 00:59N 01°09' E 103°44'4 9.2
2017-Oct-24 00:30N 01°12' E 103°48'0 0.1
2017-Oct-23 23:51N 01°12' E 103°48'0 0.0
2017-Oct-23 23:15N 01°12' E 103°48'0 0.0
2017-Oct-23 22:54N 01°12' E 103°48'0 0.0
2017-Oct-23 22:30N 01°12' E 103°48'0 0.0
2017-Oct-23 22:00N 01°12' E 103°48'0 0.0
2017-Oct-23 21:03N 01°12' E 103°48'0 0.0
2017-Oct-23 21:00N 01°12' E 103°48'0 0.0
2017-Oct-23 19:39N 01°12' E 103°48'0 0.0
2017-Oct-23 19:27N 01°12' E 103°48'0 0.0
2017-Oct-23 18:45N 01°12' E 103°48'0 0.0
2017-Oct-23 18:21N 01°12' E 103°48'0 0.0
2017-Oct-23 17:57N 01°12' E 103°48'0 0.0
2017-Oct-23 16:51N 01°12' E 103°48'0 0.0
2017-Oct-23 16:21N 01°12' E 103°48'0 0.0
2017-Oct-23 15:51N 01°12' E 103°48'0 0.0
2017-Oct-23 15:24N 01°12' E 103°48'0 0.0
2017-Oct-23 14:42N 01°12' E 103°48'0 0.0
2017-Oct-23 14:24N 01°12' E 103°48'0 0.0
2017-Oct-23 14:01N 01°12' E 103°48'0 0.0
2017-Oct-23 13:03N 01°12' E 103°48'0 0.0
2017-Oct-23 12:51N 01°12' E 103°48'0 0.0
2017-Oct-23 12:24N 01°12' E 103°48'0 0.0
2017-Oct-23 11:51N 01°12' E 103°48'0 0.0
2017-Oct-23 11:09N 01°12' E 103°48'0 0.0
2017-Oct-23 10:57N 01°12' E 103°48'0 0.0
2017-Oct-23 09:48N 01°12' E 103°48'0 0.0
2017-Oct-23 09:30N 01°12' E 103°48'0 0.0
2017-Oct-23 08:51N 01°12' E 103°48'0 0.0
2017-Oct-23 08:30N 01°12' E 103°48'1 2.0
2017-Oct-23 07:58N 01°12' E 103°49'4 7.7
2017-Oct-23 07:31N 01°14' E 103°47'612.3
2017-Oct-23 07:01N 01°13' E 103°41'2 2.9
2017-Oct-23 06:29N 01°13' E 103°39'0 0.2
2017-Oct-23 05:59N 01°13' E 103°39'0 0.0
2017-Oct-23 05:29N 01°13' E 103°39'0 0.1
2017-Oct-23 04:50N 01°13' E 103°39'0 0.8
2017-Oct-23 04:30N 01°13' E 103°39'3 5.9
2017-Oct-23 04:01N 01°12' E 103°36'2 4.9
2017-Oct-23 03:31N 01°12' E 103°34'4 7.1
2017-Oct-23 02:59N 01°10' E 103°31'3 6.5
2017-Oct-23 02:30N 01°10' E 103°28'3 6.8
2017-Oct-23 01:59N 01°11' E 103°25'3 5.5
2017-Oct-23 01:29N 01°13' E 103°23'3 6.0
2017-Oct-23 00:58N 01°15' E 103°20'  
Track history (hours):
 
Tides and Currents Weather Stations Pressure Air Temp Water Temp Dewpoint Dewpoint Depression Visibility Wind Speed Wind Dir Waves Ship Positions

Silver Ray

Last reported at 2017-Oct-24 15:47 UTC. Time now 2017-Dec-11 02:21 UTC.
Position N 01°15' E 104°10'.
Warning: this ship's position is 47 days out of date.

Length 142 m; draft 6.2 m.

Type: Ship. MMSI: 636015953.

Date/timePositionNaut miles runAvg speedWind from/ knotsBaromVisibWave heightAir tempDewpointWater temp
2017-Oct-24 15:47N 01°15' E 104°10'413.9
2017-Oct-24 15:28N 01°15' E 104°06'713.9
2017-Oct-24 15:00N 01°14' E 103°59'713.9
2017-Oct-24 14:31N 01°12' E 103°53'714.2
2017-Oct-24 14:00N 01°08' E 103°47'714.4
2017-Oct-24 13:30N 01°03' E 103°41'612.2
2017-Oct-24 12:59N 01°05' E 103°35'4 9.1
2017-Oct-24 12:30N 01°09' E 103°33'510.5
2017-Oct-24 11:59N 01°12' E 103°38'2 3.8
2017-Oct-24 11:30N 01°14' E 103°38'0 0.6
2017-Oct-24 10:59N 01°14' E 103°38'0 0.1
2017-Oct-24 10:29N 01°14' E 103°38'0 0.1
2017-Oct-24 09:59N 01°14' E 103°38'0 0.0
2017-Oct-24 09:23N 01°14' E 103°38'0 0.0
2017-Oct-24 08:53N 01°14' E 103°38'0 0.0
2017-Oct-24 08:23N 01°14' E 103°38'0 0.0
2017-Oct-24 07:59N 01°14' E 103°38'0 0.0
2017-Oct-24 07:29N 01°14' E 103°38'0 0.0
2017-Oct-24 06:41N 01°14' E 103°38'0 0.0
2017-Oct-24 06:29N 01°14' E 103°38'0 0.0
2017-Oct-24 05:59N 01°14' E 103°38'0 0.0
2017-Oct-24 05:29N 01°14' E 103°38'0 0.0
2017-Oct-24 04:59N 01°14' E 103°38'0 0.1
2017-Oct-24 04:20N 01°14' E 103°38'0 0.2
2017-Oct-24 03:53N 01°14' E 103°38'0 0.1
2017-Oct-24 03:29N 01°14' E 103°38'0 0.0
2017-Oct-24 02:59N 01°14' E 103°38'0 0.2
2017-Oct-24 02:29N 01°14' E 103°38'0 0.7
2017-Oct-24 01:59N 01°13' E 103°38'2 4.5
2017-Oct-24 01:30N 01°12' E 103°40'610.8
2017-Oct-24 00:59N 01°09' E 103°44'4 9.2
2017-Oct-24 00:30N 01°12' E 103°48'0 0.1
2017-Oct-23 23:51N 01°12' E 103°48'0 0.0
2017-Oct-23 23:15N 01°12' E 103°48'0 0.0
2017-Oct-23 22:54N 01°12' E 103°48'0 0.0
2017-Oct-23 22:30N 01°12' E 103°48'0 0.0
2017-Oct-23 22:00N 01°12' E 103°48'0 0.0
2017-Oct-23 21:03N 01°12' E 103°48'0 0.0
2017-Oct-23 21:00N 01°12' E 103°48'0 0.0
2017-Oct-23 19:39N 01°12' E 103°48'0 0.0
2017-Oct-23 19:27N 01°12' E 103°48'0 0.0
2017-Oct-23 18:45N 01°12' E 103°48'0 0.0
2017-Oct-23 18:21N 01°12' E 103°48'0 0.0
2017-Oct-23 17:57N 01°12' E 103°48'0 0.0
2017-Oct-23 16:51N 01°12' E 103°48'0 0.0
2017-Oct-23 16:21N 01°12' E 103°48'0 0.0
2017-Oct-23 15:51N 01°12' E 103°48'0 0.0
2017-Oct-23 15:24N 01°12' E 103°48'0 0.0
2017-Oct-23 14:42N 01°12' E 103°48'0 0.0
2017-Oct-23 14:24N 01°12' E 103°48'0 0.0
2017-Oct-23 14:01N 01°12' E 103°48'0 0.0
2017-Oct-23 13:03N 01°12' E 103°48'0 0.0
2017-Oct-23 12:51N 01°12' E 103°48'0 0.0
2017-Oct-23 12:24N 01°12' E 103°48'0 0.0
2017-Oct-23 11:51N 01°12' E 103°48'0 0.0
2017-Oct-23 11:09N 01°12' E 103°48'0 0.0
2017-Oct-23 10:57N 01°12' E 103°48'0 0.0
2017-Oct-23 09:48N 01°12' E 103°48'0 0.0
2017-Oct-23 09:30N 01°12' E 103°48'0 0.0
2017-Oct-23 08:51N 01°12' E 103°48'0 0.0
2017-Oct-23 08:30N 01°12' E 103°48'1 2.0
2017-Oct-23 07:58N 01°12' E 103°49'4 7.7
2017-Oct-23 07:31N 01°14' E 103°47'612.3
2017-Oct-23 07:01N 01°13' E 103°41'2 2.9
2017-Oct-23 06:29N 01°13' E 103°39'0 0.2
2017-Oct-23 05:59N 01°13' E 103°39'0 0.0
2017-Oct-23 05:29N 01°13' E 103°39'0 0.1
2017-Oct-23 04:50N 01°13' E 103°39'0 0.8
2017-Oct-23 04:30N 01°13' E 103°39'3 5.9
2017-Oct-23 04:01N 01°12' E 103°36'2 4.9
2017-Oct-23 03:31N 01°12' E 103°34'4 7.1
2017-Oct-23 02:59N 01°10' E 103°31'3 6.5
2017-Oct-23 02:30N 01°10' E 103°28'3 6.8
2017-Oct-23 01:59N 01°11' E 103°25'3 5.5
2017-Oct-23 01:29N 01°13' E 103°23'3 6.0
2017-Oct-23 00:58N 01°15' E 103°20'  

Dump ship's entire track history